Flight Track Log - Related Links

Times and Time Zones

All times are in EDT time to prevent confusion due to time zone crossing. See the EJA221 flight status page for this flight to view local times or setup timezone preferences in your user account.

Time Position Orientation Groundspeed Altitude Reporting Facility
EDT Latitude Longitude Course Direction KTS MPH feet Rate Location/Type
Thu 08:29:52 PM 38.6333 -90.6000 278° West 213 245 2,800  Level Gateway (St. Louis) TRACON
Thu 08:30:53 PM 38.6000 -90.6667 237° Southwest 254 292 4,300 2,847 Climbing Gateway (St. Louis) TRACON
Thu 08:32:09 PM 38.6911 -90.7164 337° Northwest 269 310 9,300 3,043 Climbing Kansas City Center
Thu 08:33:11 PM 38.7681 -90.7403 346° North 303 349 11,300 2,032 Climbing Kansas City Center
Thu 08:34:13 PM 38.8197 -90.8444 303° West 340 391 13,500 2,274 Climbing Kansas City Center
Thu 08:35:00 PM 38.7505 -91.5286 278° West  Level Estimated
Thu 08:35:15 PM 38.8725 -90.9531 302° West 356 410 16,000  Level Kansas City Center
Thu 08:36:16 PM 38.9250 -91.0636 301° West 361 415 18,400 2,244 Climbing Kansas City Center
Thu 08:37:18 PM 38.9731 -91.1803 298° West 369 425 20,600 2,129 Climbing Kansas City Center
Thu 08:38:20 PM 38.9969 -91.3458 281° West 389 448 22,800 2,129 Climbing Kansas City Center
Thu 08:39:22 PM 39.0194 -91.4856 282° West 397 457 25,000 2,032 Climbing Kansas City Center
Thu 08:40:24 PM 39.0403 -91.6272 281° West 403 464 27,000 1,805 Climbing Kansas City Center
Thu 08:41:25 PM 39.0619 -91.7814 280° West 414 476 28,700 1,659 Climbing Kansas City Center
Thu 08:42:27 PM 39.0847 -91.9317 281° West 426 490 30,400 1,887 Climbing Kansas City Center
Thu 08:43:29 PM 39.1075 -92.0847 281° West 432 497 32,600 2,177 Climbing Kansas City Center
Thu 08:44:31 PM 39.1208 -92.2339 277° West 425 489 34,900 2,032 Climbing Kansas City Center
Thu 08:45:33 PM 39.1325 -92.3814 276° West 418 481 36,800 2,000 Climbing Kansas City Center
Thu 08:46:34 PM 39.1453 -92.5553 275° West 411 473 39,000 1,561 Climbing Kansas City Center
Thu 08:47:36 PM 39.1564 -92.6983 276° West 406 467 40,000 484 Climbing Kansas City Center
Thu 08:48:38 PM 39.1653 -92.8278 275° West 406 467 40,000  Level Kansas City Center
Thu 08:49:40 PM 39.1764 -92.9797 275° West 418 481 40,000  Level Kansas City Center
Thu 08:50:41 PM 39.1883 -93.1603 275° West 423 487 40,000  Level Kansas City Center
Thu 08:51:43 PM 39.1992 -93.3133 275° West 428 493 40,000  Level Kansas City Center
Thu 08:52:45 PM 39.2086 -93.4675 275° West 430 495 40,000  Level Kansas City Center
Thu 08:53:47 PM 39.2203 -93.6383 275° West 429 494 40,000  Level Kansas City Center
Thu 08:54:48 PM 39.2297 -93.7842 275° West 427 491 40,000  Level Kansas City Center
Thu 08:55:50 PM 39.2383 -93.9322 274° West 432 497 40,000  Level Kansas City Center
Thu 08:56:52 PM 39.2497 -94.1056 275° West 433 498 40,000  Level Kansas City Center
Thu 08:57:54 PM 39.2581 -94.2539 274° West 433 498 40,000  Level Kansas City Center
Thu 08:58:55 PM 39.2683 -94.4278 274° West 435 501 40,000  Level Kansas City Center
Thu 08:59:57 PM 39.2783 -94.5750 275° West 431 496 40,000  Level Kansas City Center
Thu 09:00:59 PM 39.2889 -94.7506 274° West 437 503 40,000  Level Kansas City Center
Thu 09:02:01 PM 39.2981 -94.9047 274° West 472 543 40,000  Level Kansas City Center
Thu 09:03:02 PM 39.3092 -95.0778 275° West 436 502 40,000  Level Kansas City Center
Thu 09:04:04 PM 39.3194 -95.2422 275° West 447 514 40,000  Level Kansas City Center
Thu 09:05:06 PM 39.3289 -95.3994 274° West 444 511 40,000  Level Kansas City Center
Thu 09:06:07 PM 39.3383 -95.5508 275° West 443 510 40,000  Level Kansas City Center
Thu 09:07:09 PM 39.3478 -95.7272 274° West 443 510 40,000  Level Kansas City Center
Thu 09:08:11 PM 39.3561 -95.8789 274° West 443 510 40,000  Level Kansas City Center
Thu 09:09:12 PM 39.3658 -96.0564 274° West 444 511 40,000  Level Kansas City Center
Thu 09:10:14 PM 39.3728 -96.2064 273° West 446 513 40,000  Level Kansas City Center
Thu 09:11:16 PM 39.3811 -96.3664 274° West 447 514 40,000  Level Kansas City Center
Thu 09:12:17 PM 39.3894 -96.5417 274° West 447 514 40,000  Level Kansas City Center
Thu 09:13:19 PM 39.3972 -96.6939 274° West 446 513 40,000  Level Kansas City Center
Thu 09:14:20 PM 39.4050 -96.8722 273° West 445 512 40,000  Level Kansas City Center
Thu 09:15:22 PM 39.4119 -97.0261 273° West 447 514 40,000  Level Kansas City Center
Thu 09:16:24 PM 39.4197 -97.1797 274° West 447 514 40,000  Level Kansas City Center
Thu 09:17:25 PM 39.4278 -97.3597 273° West 448 516 40,000  Level Kansas City Center
Thu 09:18:27 PM 39.4353 -97.5297 273° West 452 520 40,000  Level Kansas City Center
Thu 09:19:28 PM 39.4411 -97.6833 273° West 451 519 40,000  Level Kansas City Center
Thu 09:20:30 PM 39.4472 -97.8469 273° West 453 521 40,000  Level Kansas City Center
Thu 09:21:33 PM 39.4544 -98.0317 273° West 449 517 40,000  Level Kansas City Center
Thu 09:22:33 PM 39.4606 -98.1875 273° West 451 519 40,000  Level Kansas City Center
Thu 09:23:35 PM 39.4653 -98.3686 272° West 457 526 40,000  Level Kansas City Center
Thu 09:25:01 PM 39.4736 -98.5964 273° West 453 521 40,000  Level Kansas City Center
Thu 09:26:02 PM 39.4783 -98.7586 272° West 451 519 40,000  Level Kansas City Center
Thu 09:27:04 PM 39.4825 -98.9228 272° West 455 524 40,000  Level Kansas City Center
Thu 09:28:06 PM 39.4881 -99.0872 273° West 456 525 40,000  Level Kansas City Center
Thu 09:29:07 PM 39.4986 -99.2489 275° West 452 520 40,000  Level Kansas City Center
Thu 09:30:37 PM 39.5122 -99.4750 275° West 451 519 40,000  Level Denver Center
Thu 09:31:39 PM 39.5225 -99.6686 274° West 449 517 40,000  Level Denver Center
Thu 09:32:41 PM 39.5311 -99.8306 274° West 450 518 40,000  Level Denver Center
Thu 09:33:43 PM 39.5408 -100.0078 274° West 450 518 40,000  Level Denver Center
Thu 09:34:45 PM 39.5486 -100.1650 274° West 456 525 40,000  Level Denver Center
Thu 09:35:47 PM 39.5572 -100.3447 274° West 448 516 40,000  Level Denver Center
Thu 09:36:49 PM 39.5656 -100.4986 274° West 447 514 40,000  Level Denver Center
Thu 09:37:51 PM 39.5725 -100.6514 273° West 444 511 40,000  Level Denver Center
Thu 09:38:53 PM 39.5806 -100.8311 273° West 446 513 40,000  Level Denver Center
Thu 09:39:55 PM 39.5875 -100.9825 273° West 441 507 40,000  Level Denver Center
Thu 09:40:56 PM 39.5958 -101.1603 274° West 443 510 40,000  Level Denver Center
Thu 09:41:58 PM 39.6017 -101.3136 273° West 444 511 40,000  Level Denver Center
Thu 09:43:00 PM 39.6075 -101.4408 273° West 443 510 40,000  Level Denver Center
Thu 09:44:02 PM 39.6150 -101.6475 273° West 448 516 40,000  Level Denver Center
Thu 09:45:04 PM 39.6197 -101.7997 272° West 443 510 40,000  Level Denver Center
Thu 09:46:06 PM 39.6264 -101.9786 273° West 445 512 40,000  Level Denver Center
Thu 09:47:08 PM 39.6319 -102.1322 273° West 445 512 40,000  Level Denver Center
Thu 09:48:10 PM 39.6386 -102.3111 273° West 444 511 40,000  Level Denver Center
Thu 09:49:12 PM 39.6433 -102.4656 272° West 447 514 40,000  Level Denver Center
Thu 09:50:14 PM 39.6486 -102.6436 272° West 443 510 40,000  Level Denver Center
Thu 09:51:15 PM 39.6525 -102.7758 272° West 446 513 40,000  Level Denver Center
Thu 09:52:17 PM 39.6625 -102.9333 275° West 441 507 40,000  Level Denver Center
Thu 09:53:19 PM 39.6950 -103.1192 283° West 442 509 40,000  Level Denver Center
Thu 09:54:21 PM 39.7214 -103.2744 283° West 442 509 40,000  Level Denver Center
Thu 09:55:23 PM 39.7489 -103.4292 283° West 442 509 40,000  Level Denver Center
Thu 09:56:37 PM 39.7817 -103.6156 283° West 442 509 40,000  Level Denver Center
Thu 09:57:39 PM 39.8153 -103.8044 283° West 453 521 40,000  Level Denver Center
Thu 09:58:53 PM 39.8439 -103.9578 284° West 440 506 40,000 -309 Level Denver Center
Thu 09:59:55 PM 39.8786 -104.1431 284° West 442 509 39,300 -1,258 Descending Denver Center
Thu 10:00:57 PM 39.9086 -104.2981 284° West 445 512 37,400 -2,081 Descending Denver Center
Thu 10:01:59 PM 39.9458 -104.4839 285° West 448 516 35,000 -1,645 Descending Denver Center
Thu 10:03:01 PM 39.9769 -104.6397 285° West 452 520 34,000 -441 Descending Denver Center
Thu 10:04:15 PM 40.0089 -104.8033 284° West 465 535 34,000  Level Denver Center
Thu 10:05:17 PM 40.0408 -104.9942 282° West 453 521 34,000 -339 Level Denver Center
Thu 10:06:19 PM 40.0636 -105.1553 281° West 452 520 33,300 -1,452 Descending Denver Center
Thu 10:07:21 PM 40.0381 -105.3444 260° West 461 531 31,000 -2,081 Descending Denver Center
Thu 10:08:23 PM 39.9961 -105.5044 251° West 467 537 29,000 -1,935 Descending Denver Center
Thu 10:09:25 PM 39.9633 -105.6722 256° West 477 549 27,000 -1,463 Descending Denver Center
Thu 10:10:26 PM 39.9194 -105.7978 246° West 484 557 26,000 -1,403 Descending Denver Center
Thu 10:11:29 PM 39.8428 -105.9736 240° Southwest 472 543 24,100 -1,935 Descending Denver Center
Thu 10:12:30 PM 39.7786 -106.1236 241° Southwest 477 549 22,000 -2,098 Descending Denver Center
Thu 10:13:32 PM 39.7042 -106.2931 240° Southwest 475 547 19,800 -2,081 Descending Denver Center
Thu 10:14:34 PM 39.6428 -106.4358 241° Southwest 455 524 17,700 -1,839 Descending Denver Center
Thu 10:15:36 PM 39.5831 -106.5689 240° Southwest 440 506 16,000 -871 Descending Denver Center
Thu 10:16:38 PM 39.5281 -106.7242 245° Southwest 428 493 15,900 -97 Descending Denver Center
Thu 10:17:40 PM 39.5178 -106.8617 265° West 391 450 15,800 -732 Descending Denver Center
Thu 10:18:41 PM 39.5056 -106.9767 262° West 311 358 14,400 -1,377 Descending Denver Center

Login

Don't have an account? Register now (free) for customized features, flight alerts, and more!